createdAt,value
2019-05-14T00:00:04.427Z,56036.75
2019-05-14T00:02:34.334Z,56013.10
2019-05-14T00:05:05.094Z,56025.44
2019-05-14T00:07:34.970Z,56016.19
2019-05-14T00:10:06.001Z,56028.52
2019-05-14T00:12:35.870Z,56022.36
2019-05-14T00:15:06.516Z,56036.75
2019-05-14T00:17:36.468Z,56033.67
2019-05-14T00:20:10.209Z,56061.43
2019-05-14T00:22:41.464Z,56024.41
2019-05-14T00:25:11.673Z,56026.47
2019-05-14T00:27:41.787Z,56049.09
2019-05-14T00:30:12.285Z,56069.65
2019-05-14T00:32:42.398Z,56063.48
2019-05-14T00:35:12.617Z,56028.52
2019-05-14T00:37:42.514Z,56036.75
2019-05-14T00:40:12.391Z,56003.85
2019-05-14T00:42:42.573Z,56047.03
2019-05-14T00:45:12.984Z,56030.58
2019-05-14T00:47:42.898Z,56041.89
2019-05-14T00:50:13.994Z,56030.58
2019-05-14T00:52:46.323Z,56028.52
2019-05-14T00:55:16.270Z,56012.07
2019-05-14T00:57:46.137Z,56020.30
2019-05-14T01:00:16.510Z,56031.61
2019-05-14T01:02:46.692Z,56023.38
2019-05-14T01:05:16.605Z,56039.84
2019-05-14T01:07:46.522Z,56022.36
2019-05-14T01:10:16.943Z,56040.86
2019-05-14T01:12:46.833Z,56035.72
2019-05-14T01:15:17.442Z,56067.60
2019-05-14T01:17:47.286Z,56061.43
2019-05-14T01:20:17.643Z,56042.92
2019-05-14T01:22:47.479Z,56055.26
2019-05-14T01:25:17.407Z,56028.52
2019-05-14T01:27:47.259Z,56053.20
2019-05-14T01:30:17.399Z,56034.70
2019-05-14T01:32:47.632Z,56040.86
2019-05-14T01:35:17.552Z,56032.64
2019-05-14T01:37:47.693Z,56029.55
2019-05-14T01:40:18.305Z,56013.10
2019-05-14T01:42:48.202Z,56050.12
2019-05-14T01:45:25.131Z,56023.38
2019-05-14T01:47:51.921Z,56035.72
2019-05-14T01:50:21.635Z,56037.78
2019-05-14T01:52:52.181Z,56034.70
2019-05-14T01:55:22.215Z,56012.07
2019-05-14T01:57:52.081Z,56068.62
2019-05-14T02:00:22.559Z,56062.46
2019-05-14T02:02:52.973Z,55998.71
2019-05-14T02:05:22.954Z,56026.47
2019-05-14T02:07:53.108Z,56035.72
2019-05-14T02:10:24.069Z,56014.13
2019-05-14T02:12:53.970Z,56017.21
2019-05-14T02:15:36.369Z,56039.84
2019-05-14T02:17:56.014Z,56052.18
2019-05-14T02:20:26.243Z,56017.21
2019-05-14T02:22:56.469Z,56006.93
2019-05-14T02:25:26.680Z,56058.34
2019-05-14T02:27:56.811Z,56001.79
2019-05-14T02:30:38.474Z,56030.58
2019-05-14T02:32:59.583Z,56046.00
2019-05-14T02:35:29.974Z,56047.03
2019-05-14T02:38:00.259Z,56026.47
2019-05-14T02:40:30.616Z,56053.20
2019-05-14T02:43:00.517Z,56082.00
2019-05-14T02:45:30.623Z,56031.61
2019-05-14T02:48:00.754Z,55996.65
2019-05-14T02:50:31.063Z,56042.92
2019-05-14T02:53:00.930Z,56033.67
2019-05-14T02:55:31.106Z,56048.06
2019-05-14T02:58:01.292Z,56039.84
2019-05-14T03:00:31.556Z,56030.58
2019-05-14T03:03:01.791Z,56025.44
2019-05-14T03:05:31.717Z,56020.30
2019-05-14T03:08:01.952Z,56056.29
2019-05-14T03:10:31.944Z,56047.03
2019-05-14T03:13:01.934Z,56032.64
2019-05-14T03:15:31.918Z,56005.90
2019-05-14T03:18:02.173Z,56050.12
2019-05-14T03:20:32.164Z,56048.06
2019-05-14T03:23:08.589Z,56041.89
2019-05-14T03:25:34.139Z,56018.24
2019-05-14T03:28:04.145Z,56037.78
2019-05-14T03:30:34.572Z,56043.95
2019-05-14T03:33:04.943Z,56013.10
2019-05-14T03:35:42.020Z,56025.44
2019-05-14T03:38:09.413Z,56048.06
2019-05-14T03:40:39.974Z,56050.12
2019-05-14T03:43:09.935Z,56026.47
2019-05-14T03:45:40.199Z,56034.70
2019-05-14T03:48:10.645Z,56056.29
2019-05-14T03:50:40.692Z,56037.78
2019-05-14T03:53:10.546Z,56034.70
2019-05-14T03:55:40.924Z,56060.40
2019-05-14T03:58:10.948Z,56057.32
2019-05-14T04:01:00.353Z,56050.12
2019-05-14T04:03:31.846Z,56034.70
2019-05-14T04:06:03.203Z,56044.98
2019-05-14T04:08:34.142Z,56027.50
2019-05-14T04:11:04.425Z,56028.52
2019-05-14T04:13:34.765Z,56050.12
2019-05-14T04:16:05.726Z,56026.47
2019-05-14T04:18:40.632Z,56027.50
2019-05-14T04:21:13.077Z,56018.24
2019-05-14T04:23:50.820Z,56007.96
2019-05-14T04:26:22.574Z,56002.82
2019-05-14T04:28:52.974Z,56056.29
2019-05-14T04:31:23.373Z,56007.96
2019-05-14T04:33:55.239Z,56018.24
2019-05-14T04:36:25.145Z,56023.38
2019-05-14T04:38:55.570Z,56005.90
2019-05-14T04:41:29.591Z,56001.79
2019-05-14T04:43:59.512Z,55995.62
2019-05-14T04:46:30.518Z,56003.85
2019-05-14T04:49:00.588Z,56013.10
2019-05-14T04:51:31.017Z,56025.44
2019-05-14T04:54:01.144Z,56019.27
2019-05-14T04:56:31.063Z,56001.79
2019-05-14T04:59:01.357Z,56010.02
2019-05-14T05:01:31.276Z,55997.68
2019-05-14T05:04:01.127Z,55988.43
2019-05-14T05:06:30.997Z,56006.93
2019-05-14T05:09:00.876Z,56020.30
2019-05-14T05:11:30.747Z,56018.24
2019-05-14T05:14:00.615Z,56051.14
2019-05-14T05:16:31.040Z,55979.17
2019-05-14T05:19:01.035Z,56011.05
2019-05-14T05:21:31.049Z,56016.19
2019-05-14T05:24:00.942Z,55986.37
2019-05-14T05:26:31.154Z,55993.57
2019-05-14T05:29:06.650Z,56013.10
2019-05-14T05:31:32.987Z,56008.99
2019-05-14T05:34:02.850Z,56008.99
2019-05-14T05:36:32.763Z,55997.68
2019-05-14T05:39:03.924Z,55996.65
2019-05-14T05:41:33.777Z,56007.96
2019-05-14T05:44:03.937Z,56044.98
2019-05-14T05:46:33.826Z,56018.24
2019-05-14T05:49:03.725Z,55977.11
2019-05-14T05:51:33.606Z,56008.99
2019-05-14T05:54:04.108Z,55975.06
2019-05-14T05:56:33.992Z,55999.73
2019-05-14T05:59:03.836Z,55977.11
2019-05-14T06:01:44.871Z,55850.64
2019-05-14T06:04:05.715Z,55804.38
2019-05-14T06:06:35.906Z,55806.43
2019-05-14T06:09:08.956Z,55813.63
2019-05-14T06:11:38.942Z,55799.24
2019-05-14T06:14:08.817Z,55829.05
2019-05-14T06:16:38.700Z,55813.63
2019-05-14T06:19:08.702Z,55822.88
2019-05-14T06:21:39.760Z,55801.29
2019-05-14T06:24:10.094Z,55817.75
2019-05-14T06:26:40.315Z,55808.49
2019-05-14T06:29:10.517Z,55907.20
2019-05-14T06:31:40.655Z,55835.22
2019-05-14T06:34:10.862Z,55905.14
2019-05-14T06:36:40.842Z,56016.19
2019-05-14T06:39:10.767Z,56024.41
2019-05-14T06:41:42.965Z,56032.64
2019-05-14T06:44:12.650Z,55993.57
2019-05-14T06:46:42.784Z,56037.78
2019-05-14T06:49:12.675Z,56037.78
2019-05-14T06:51:42.555Z,56056.29
2019-05-14T06:54:12.444Z,56058.34
2019-05-14T06:56:42.342Z,56028.52
2019-05-14T06:59:12.552Z,56056.29
2019-05-14T07:01:42.403Z,56054.23
2019-05-14T07:04:12.282Z,56017.21
2019-05-14T07:06:48.278Z,56029.55
2019-05-14T07:09:18.438Z,56048.06
2019-05-14T07:11:49.150Z,56034.70
2019-05-14T07:14:19.549Z,56010.02
2019-05-14T07:16:49.468Z,56031.61
2019-05-14T07:19:20.027Z,56044.98
2019-05-14T07:21:50.246Z,56010.02
2019-05-14T07:24:20.253Z,56022.36
2019-05-14T07:26:50.399Z,56039.84
2019-05-14T07:29:20.595Z,56015.16
2019-05-14T07:31:50.471Z,55987.40
2019-05-14T07:34:20.378Z,56011.05
2019-05-14T07:36:50.513Z,55983.28
2019-05-14T07:39:20.428Z,55992.54
2019-05-14T07:41:50.531Z,55994.59
2019-05-14T07:44:20.411Z,56018.24
2019-05-14T07:46:50.588Z,56017.21
2019-05-14T07:49:20.444Z,56012.07
2019-05-14T07:51:50.286Z,56015.16
2019-05-14T07:54:20.279Z,56007.96
2019-05-14T07:56:52.964Z,56014.13
2019-05-14T07:59:22.381Z,56022.36
2019-05-14T08:01:52.395Z,56005.90
2019-05-14T08:04:22.289Z,56024.41
2019-05-14T08:06:52.174Z,56048.06
2019-05-14T08:09:22.337Z,56014.13
2019-05-14T08:11:52.211Z,56025.44
2019-05-14T08:14:22.143Z,56035.72
2019-05-14T08:16:52.003Z,56024.41
2019-05-14T08:19:26.210Z,56011.05
2019-05-14T08:21:53.524Z,55991.51
2019-05-14T08:24:27.011Z,55995.62
2019-05-14T08:26:55.070Z,55991.51
2019-05-14T08:29:24.981Z,55966.83
2019-05-14T08:31:54.877Z,56027.50
2019-05-14T08:34:25.059Z,55961.69
2019-05-14T08:36:54.938Z,55964.78
2019-05-14T08:39:24.809Z,55985.34
2019-05-14T08:41:59.721Z,55970.95
2019-05-14T08:44:26.377Z,55983.28
2019-05-14T08:46:58.978Z,55997.68
2019-05-14T08:49:38.986Z,55961.69
2019-05-14T08:52:00.857Z,55983.28
2019-05-14T08:54:30.750Z,56010.02
2019-05-14T08:57:00.933Z,56005.90
2019-05-14T08:59:30.773Z,56012.07
2019-05-14T09:02:06.334Z,55991.51
2019-05-14T09:04:32.335Z,55981.23
2019-05-14T09:07:02.478Z,56005.90
2019-05-14T09:09:32.335Z,56015.16
2019-05-14T09:12:02.562Z,56002.82
2019-05-14T09:14:32.429Z,55911.31
2019-05-14T09:17:02.283Z,56005.90
2019-05-14T09:19:32.394Z,56018.24
2019-05-14T09:22:02.273Z,56001.79
2019-05-14T09:24:32.437Z,55976.09
2019-05-14T09:27:05.452Z,55991.51
2019-05-14T09:29:34.193Z,55954.49
2019-05-14T09:32:04.081Z,55997.68
2019-05-14T09:34:33.947Z,56022.36
2019-05-14T09:37:03.842Z,56016.19
2019-05-14T09:39:33.724Z,56024.41
2019-05-14T09:42:03.693Z,56004.87
2019-05-14T09:44:33.552Z,55976.09
2019-05-14T09:47:03.594Z,55986.37
2019-05-14T09:49:34.063Z,55963.75
2019-05-14T09:52:03.927Z,55913.36
2019-05-14T09:54:33.805Z,55890.75
2019-05-14T09:57:03.668Z,55898.97
2019-05-14T09:59:33.602Z,55891.77
2019-05-14T10:02:03.463Z,55898.97
2019-05-14T10:04:33.360Z,55850.64
2019-05-14T10:07:03.829Z,55945.24
2019-05-14T10:09:33.986Z,55898.97
2019-05-14T10:12:04.133Z,55931.87
2019-05-14T10:14:34.619Z,55918.50
2019-05-14T10:17:04.776Z,55870.18
2019-05-14T10:19:34.939Z,55910.28
2019-05-14T10:22:04.778Z,55950.38
2019-05-14T10:24:34.659Z,55997.68
2019-05-14T10:27:04.522Z,55995.62
2019-05-14T10:29:34.441Z,55973.00
2019-05-14T10:32:04.657Z,55977.11
2019-05-14T10:34:35.471Z,55977.11
2019-05-14T10:37:08.364Z,55983.28
2019-05-14T10:39:39.075Z,55984.31
2019-05-14T10:42:09.296Z,55960.66
2019-05-14T10:44:39.195Z,55980.20
2019-05-14T10:47:09.662Z,55949.35
2019-05-14T10:49:39.649Z,55991.51
2019-05-14T10:52:10.103Z,55954.49
2019-05-14T10:54:53.841Z,55979.17
2019-05-14T10:57:12.527Z,55971.97
2019-05-14T10:59:42.665Z,55970.95
2019-05-14T11:02:12.505Z,55960.66
2019-05-14T11:04:42.400Z,55990.48
2019-05-14T11:07:12.280Z,55973.00
2019-05-14T11:09:42.098Z,55964.78
2019-05-14T11:12:12.308Z,55979.17
2019-05-14T11:14:42.530Z,55977.11
2019-05-14T11:17:12.709Z,55976.09
2019-05-14T11:19:43.181Z,55960.66
2019-05-14T11:22:13.042Z,55953.46
2019-05-14T11:24:43.278Z,55951.41
2019-05-14T11:27:13.162Z,55949.35
2019-05-14T11:29:43.111Z,55966.83
2019-05-14T11:32:13.016Z,55995.62
2019-05-14T11:34:42.845Z,55950.38
2019-05-14T11:37:12.780Z,55939.07
2019-05-14T11:39:42.669Z,55952.44
2019-05-14T11:42:12.772Z,55973.00
2019-05-14T11:44:43.022Z,55966.83
2019-05-14T11:47:13.207Z,55946.27
2019-05-14T11:49:43.672Z,55960.66
2019-05-14T11:52:13.581Z,55957.58
2019-05-14T11:54:43.826Z,55964.78
2019-05-14T11:57:13.697Z,55952.44
2019-05-14T11:59:44.196Z,55954.49
2019-05-14T12:02:14.152Z,55942.16
2019-05-14T12:04:44.024Z,55966.83
2019-05-14T12:07:14.206Z,55933.93
2019-05-14T12:09:44.085Z,55939.07
2019-05-14T12:12:14.259Z,55915.42
2019-05-14T12:14:44.786Z,55950.38
2019-05-14T12:17:14.625Z,55985.34
2019-05-14T12:19:45.019Z,55966.83
2019-05-14T12:22:15.253Z,55970.95
2019-05-14T12:24:45.173Z,55964.78
2019-05-14T12:27:15.037Z,55959.63
2019-05-14T12:29:44.982Z,55979.17
2019-05-14T12:32:14.848Z,55977.11
2019-05-14T12:34:44.684Z,55981.23
2019-05-14T12:37:14.563Z,55946.27
2019-05-14T12:39:44.465Z,55949.35
2019-05-14T12:42:14.804Z,55949.35
2019-05-14T12:44:44.734Z,55927.76
2019-05-14T12:47:14.574Z,55970.95
2019-05-14T12:49:44.450Z,55987.40
2019-05-14T12:52:24.452Z,55959.63
2019-05-14T12:54:45.888Z,55954.49
2019-05-14T12:57:18.779Z,55953.46
2019-05-14T12:59:48.695Z,55931.87
2019-05-14T13:02:19.058Z,55962.72
2019-05-14T13:04:49.950Z,55947.30
2019-05-14T13:07:19.812Z,55946.27
2019-05-14T13:09:49.920Z,55973.00
2019-05-14T13:12:19.768Z,55939.07
2019-05-14T13:14:49.901Z,55964.78
2019-05-14T13:17:19.766Z,55946.27
2019-05-14T13:19:49.620Z,55944.21
2019-05-14T13:22:36.383Z,55926.73
2019-05-14T13:24:51.104Z,56001.79
2019-05-14T13:27:21.516Z,55964.78
2019-05-14T13:29:51.384Z,55950.38
2019-05-14T13:32:21.254Z,55959.63
2019-05-14T13:34:51.130Z,55957.58
2019-05-14T13:37:29.010Z,55956.55
2019-05-14T13:39:59.335Z,55967.86
2019-05-14T13:42:29.668Z,55977.11
2019-05-14T13:44:59.743Z,55970.95
2019-05-14T13:47:29.605Z,55987.40
2019-05-14T13:49:59.475Z,55963.75
2019-05-14T13:52:30.002Z,55932.90
2019-05-14T13:54:59.880Z,55945.24
2019-05-14T13:57:30.060Z,55982.25
2019-05-14T14:00:00.209Z,55982.25
2019-05-14T14:02:31.333Z,55967.86
2019-05-14T14:05:01.674Z,55975.06
2019-05-14T14:07:31.530Z,55983.28
2019-05-14T14:10:01.409Z,55977.11
2019-05-14T14:12:32.383Z,55983.28
2019-05-14T14:15:03.003Z,55957.58
2019-05-14T14:17:32.912Z,55919.54
2019-05-14T14:20:03.850Z,55892.80
2019-05-14T14:22:34.069Z,55895.89
2019-05-14T14:25:04.477Z,55928.79
2019-05-14T14:27:34.617Z,55906.17
2019-05-14T14:30:05.434Z,55926.73
2019-05-14T14:32:35.657Z,55973.00
2019-05-14T14:35:08.469Z,55978.14
2019-05-14T14:37:39.692Z,55991.51
2019-05-14T14:40:10.769Z,55945.24
2019-05-14T14:42:41.090Z,55933.93
2019-05-14T14:45:12.018Z,55934.96
2019-05-14T14:47:42.161Z,55951.41
2019-05-14T14:50:12.644Z,55913.36
2019-05-14T14:52:42.784Z,55923.65
2019-05-14T14:55:13.130Z,55940.10
2019-05-14T14:57:45.598Z,55942.16
2019-05-14T15:00:15.434Z,55971.97
2019-05-14T15:02:45.536Z,55994.59
2019-05-14T15:05:15.671Z,55981.23
2019-05-14T15:07:49.214Z,55962.72
2019-05-14T15:10:19.283Z,55970.95
2019-05-14T15:12:49.900Z,55960.66
2019-05-14T15:15:19.908Z,55947.30
2019-05-14T15:17:49.826Z,55927.76
2019-05-14T15:20:19.955Z,55906.17
2019-05-14T15:22:49.944Z,55893.83
2019-05-14T15:25:19.792Z,55952.44
2019-05-14T15:27:49.639Z,55983.28
2019-05-14T15:30:19.725Z,55966.83
2019-05-14T15:32:51.370Z,55987.40
2019-05-14T15:35:21.568Z,55981.23
2019-05-14T15:37:51.461Z,56002.82
2019-05-14T15:40:22.564Z,55986.37
2019-05-14T15:42:52.494Z,55927.76
2019-05-14T15:45:22.641Z,55923.65
2019-05-14T15:47:52.523Z,55946.27
2019-05-14T15:50:22.402Z,55927.76
2019-05-14T15:52:52.585Z,55942.16
2019-05-14T15:55:22.552Z,55907.20
2019-05-14T15:57:52.404Z,55973.00
2019-05-14T16:00:23.048Z,55959.63
2019-05-14T16:02:52.916Z,55979.17
2019-05-14T16:05:22.803Z,55935.98
2019-05-14T16:07:52.718Z,55958.61
2019-05-14T16:10:22.840Z,55954.49
2019-05-14T16:12:52.721Z,55956.55
2019-05-14T16:15:23.016Z,55941.13
2019-05-14T16:18:05.739Z,55975.06
2019-05-14T16:20:24.477Z,55955.52
2019-05-14T16:22:54.414Z,55928.79
2019-05-14T16:25:24.547Z,55984.31
2019-05-14T16:27:54.413Z,55954.49
2019-05-14T16:30:24.491Z,55979.17
2019-05-14T16:32:54.419Z,55973.00
2019-05-14T16:35:24.346Z,55940.10
2019-05-14T16:37:54.204Z,55954.49
2019-05-14T16:40:24.131Z,55949.35
2019-05-14T16:42:55.016Z,55962.72
2019-05-14T16:45:24.926Z,55995.62
2019-05-14T16:47:54.806Z,55970.95
2019-05-14T16:50:25.089Z,55996.65
2019-05-14T16:52:55.043Z,55983.28
2019-05-14T16:55:29.659Z,56002.82
2019-05-14T16:57:58.236Z,55933.93
2019-05-14T17:00:29.404Z,55978.14
2019-05-14T17:02:59.881Z,55973.00
2019-05-14T17:05:30.357Z,55961.69
2019-05-14T17:08:00.551Z,55981.23
2019-05-14T17:10:30.659Z,55968.89
2019-05-14T17:13:01.839Z,55952.44
2019-05-14T17:15:31.958Z,55985.34
2019-05-14T17:18:01.829Z,55967.86
2019-05-14T17:20:31.990Z,55956.55
2019-05-14T17:23:01.861Z,55951.41
2019-05-14T17:25:31.772Z,55995.62
2019-05-14T17:28:01.815Z,55980.20
2019-05-14T17:30:31.677Z,55984.31
2019-05-14T17:33:01.974Z,55961.69
2019-05-14T17:35:31.827Z,55999.73
2019-05-14T17:38:01.763Z,55989.45
2019-05-14T17:40:31.978Z,55977.11
2019-05-14T17:43:01.846Z,55985.34
2019-05-14T17:45:31.769Z,55962.72
2019-05-14T17:48:01.638Z,55962.72
2019-05-14T17:50:31.757Z,55973.00
2019-05-14T17:53:02.272Z,55989.45
2019-05-14T17:55:43.578Z,55987.40
2019-05-14T17:58:03.689Z,55962.72
2019-05-14T18:00:33.893Z,55979.17
2019-05-14T18:03:03.787Z,55995.62
2019-05-14T18:05:33.639Z,56014.13
2019-05-14T18:08:03.571Z,56005.90
2019-05-14T18:10:33.805Z,55995.62
2019-05-14T18:13:04.246Z,55979.17
2019-05-14T18:15:34.499Z,55979.17
2019-05-14T18:18:04.417Z,55956.55
2019-05-14T18:20:34.462Z,55956.55
2019-05-14T18:23:04.750Z,56016.19
2019-05-14T18:25:34.980Z,55993.57
2019-05-14T18:28:05.557Z,55979.17
2019-05-14T18:30:35.537Z,55998.71
2019-05-14T18:33:07.854Z,55984.31
2019-05-14T18:35:44.393Z,55982.25
2019-05-14T18:38:09.620Z,56020.30
2019-05-14T18:40:39.841Z,55970.95
2019-05-14T18:43:09.899Z,55966.83
2019-05-14T18:45:40.100Z,55967.86
2019-05-14T18:48:10.622Z,56026.47
2019-05-14T18:50:40.506Z,55996.65
2019-05-14T18:53:13.028Z,56011.05
2019-05-14T18:55:42.606Z,55999.73
2019-05-14T18:58:13.254Z,55985.34
2019-05-14T19:00:43.627Z,55974.03
2019-05-14T19:03:13.892Z,55999.73
2019-05-14T19:05:44.318Z,56024.41
2019-05-14T19:08:14.549Z,56026.47
2019-05-14T19:10:44.836Z,56020.30
2019-05-14T19:13:15.091Z,56019.27
2019-05-14T19:15:45.314Z,55985.34
2019-05-14T19:18:15.491Z,55981.23
2019-05-14T19:20:48.431Z,56001.79
2019-05-14T19:23:18.744Z,55988.43
2019-05-14T19:25:48.832Z,56001.79
2019-05-14T19:28:18.895Z,56007.96
2019-05-14T19:30:48.958Z,56053.20
2019-05-14T19:33:20.596Z,56031.61
2019-05-14T19:35:51.098Z,56003.85
2019-05-14T19:38:21.002Z,56005.90
2019-05-14T19:40:51.339Z,56014.13
2019-05-14T19:43:21.475Z,56012.07
2019-05-14T19:45:52.288Z,56012.07
2019-05-14T19:48:22.340Z,55999.73
2019-05-14T19:50:52.748Z,56019.27
2019-05-14T19:53:22.654Z,56003.85
2019-05-14T19:55:52.957Z,56010.02
2019-05-14T19:58:23.217Z,55997.68
2019-05-14T20:00:53.147Z,56013.10
2019-05-14T20:03:23.139Z,56002.82
2019-05-14T20:05:53.498Z,56030.58
2019-05-14T20:08:24.109Z,56022.36
2019-05-14T20:10:54.395Z,56014.13
2019-05-14T20:13:24.524Z,56012.07
2019-05-14T20:15:54.542Z,56028.52
2019-05-14T20:18:25.109Z,55995.62
2019-05-14T20:20:55.305Z,56018.24
2019-05-14T20:23:25.219Z,56001.79
2019-05-14T20:25:55.695Z,56019.27
2019-05-14T20:28:25.580Z,56019.27
2019-05-14T20:30:58.422Z,56016.19
2019-05-14T20:33:27.370Z,56039.84
2019-05-14T20:35:58.978Z,55982.25
2019-05-14T20:38:29.808Z,55978.14
2019-05-14T20:40:59.984Z,56025.44
2019-05-14T20:43:30.484Z,56002.82
2019-05-14T20:46:01.042Z,55999.73
2019-05-14T20:48:31.196Z,55991.51
2019-05-14T20:51:01.073Z,56057.32
2019-05-14T20:53:30.954Z,56032.64
2019-05-14T20:56:00.863Z,56016.19
2019-05-14T20:58:30.879Z,56002.82
2019-05-14T21:01:00.840Z,56016.19
2019-05-14T21:03:31.014Z,56007.96
2019-05-14T21:06:01.131Z,56003.85
2019-05-14T21:08:31.032Z,56040.86
2019-05-14T21:11:00.967Z,56034.70
2019-05-14T21:13:31.433Z,56023.38
2019-05-14T21:16:01.307Z,56059.37
2019-05-14T21:18:35.222Z,56036.75
2019-05-14T21:21:02.764Z,56039.84
2019-05-14T21:23:33.030Z,56015.16
2019-05-14T21:26:02.902Z,56014.13
2019-05-14T21:28:33.220Z,56035.72
2019-05-14T21:31:03.331Z,56029.55
2019-05-14T21:33:33.233Z,56055.26
2019-05-14T21:36:03.244Z,56040.86
2019-05-14T21:38:33.412Z,55990.48
2019-05-14T21:41:03.522Z,56016.19
2019-05-14T21:43:33.345Z,56016.19
2019-05-14T21:46:04.377Z,56015.16
2019-05-14T21:48:34.265Z,56053.20
2019-05-14T21:51:04.090Z,56038.81
2019-05-14T21:53:33.915Z,56006.93
2019-05-14T21:56:04.132Z,56046.00
2019-05-14T21:58:34.075Z,56031.61
2019-05-14T22:01:04.479Z,56011.05
2019-05-14T22:03:34.697Z,56027.50
2019-05-14T22:06:04.757Z,56040.86
2019-05-14T22:08:35.054Z,56024.41
2019-05-14T22:11:04.920Z,56033.67
2019-05-14T22:13:34.777Z,56038.81
2019-05-14T22:16:04.927Z,56022.36
2019-05-14T22:18:34.791Z,56029.55
2019-05-14T22:21:04.707Z,56022.36
2019-05-14T22:23:35.266Z,56024.41
2019-05-14T22:26:06.157Z,55995.62
2019-05-14T22:28:36.306Z,56019.27
2019-05-14T22:31:08.901Z,56044.98
2019-05-14T22:33:38.402Z,56015.16
2019-05-14T22:36:08.761Z,56044.98
2019-05-14T22:38:39.042Z,56004.87
2019-05-14T22:41:11.574Z,56003.85
2019-05-14T22:43:41.452Z,56025.44
2019-05-14T22:46:11.340Z,56043.95
2019-05-14T22:48:41.164Z,56015.16
2019-05-14T22:51:11.085Z,56054.23
2019-05-14T22:53:40.969Z,56016.19
2019-05-14T22:56:11.068Z,55998.71
2019-05-14T22:58:40.927Z,56043.95
2019-05-14T23:01:14.780Z,56034.70
2019-05-14T23:03:42.542Z,56025.44
2019-05-14T23:06:12.393Z,56043.95
2019-05-14T23:08:42.278Z,56003.85
2019-05-14T23:11:12.124Z,56064.51
2019-05-14T23:13:42.033Z,55993.57
2019-05-14T23:16:11.865Z,56034.70
2019-05-14T23:18:41.722Z,56040.86
2019-05-14T23:21:11.606Z,56014.13
2019-05-14T23:23:41.457Z,56061.43
2019-05-14T23:26:11.316Z,56068.62
2019-05-14T23:28:45.758Z,56071.71
2019-05-14T23:31:13.298Z,56037.78
2019-05-14T23:33:43.305Z,56050.12
2019-05-14T23:36:13.212Z,56024.41
2019-05-14T23:38:43.197Z,56051.14
2019-05-14T23:41:13.045Z,56046.00
2019-05-14T23:43:43.278Z,56038.81
2019-05-14T23:46:13.154Z,56023.38
2019-05-14T23:48:43.026Z,56031.61
2019-05-14T23:51:12.930Z,56040.86
2019-05-14T23:53:42.811Z,56015.16
2019-05-14T23:56:12.695Z,56017.21
2019-05-14T23:58:54.185Z,56033.67
